createdAt,value
2022-10-09T00:00:04.077Z,56.39
2022-10-09T00:01:04.077Z,56.48
2022-10-09T00:02:04.163Z,56.40
2022-10-09T00:03:04.090Z,56.41
2022-10-09T00:04:04.107Z,56.41
2022-10-09T00:06:04.100Z,56.47
2022-10-09T00:07:04.106Z,56.36
2022-10-09T00:08:04.101Z,56.51
2022-10-09T00:10:04.140Z,56.53
2022-10-09T00:11:04.117Z,56.66
2022-10-09T00:13:04.131Z,56.65
2022-10-09T00:14:05.324Z,56.54
2022-10-09T00:15:04.110Z,56.54
2022-10-09T00:17:04.251Z,56.59
2022-10-09T00:19:04.130Z,56.64
2022-10-09T00:21:04.148Z,56.62
2022-10-09T00:22:04.129Z,56.56
2022-10-09T00:23:04.148Z,56.67
2022-10-09T00:24:04.128Z,56.67
2022-10-09T00:25:04.151Z,56.63
2022-10-09T00:26:04.153Z,56.67
2022-10-09T00:27:04.149Z,56.67
2022-10-09T00:28:04.206Z,56.78
2022-10-09T00:29:04.164Z,56.99
2022-10-09T00:30:04.165Z,56.99
2022-10-09T00:31:04.231Z,57.02
2022-10-09T00:32:04.167Z,57.13
2022-10-09T00:34:04.184Z,57.19
2022-10-09T00:36:04.190Z,57.09
2022-10-09T00:37:04.192Z,57.10
2022-10-09T00:38:04.200Z,57.14
2022-10-09T00:39:04.186Z,57.14
2022-10-09T00:40:04.203Z,57.19
2022-10-09T00:41:04.301Z,57.48
2022-10-09T00:42:04.176Z,57.52
2022-10-09T00:43:04.187Z,57.54
2022-10-09T00:44:04.192Z,57.54
2022-10-09T00:45:04.176Z,57.46
2022-10-09T00:46:04.285Z,57.62
2022-10-09T00:47:04.194Z,57.50
2022-10-09T00:48:04.195Z,57.38
2022-10-09T00:49:04.215Z,57.50
2022-10-09T00:50:04.221Z,57.50
2022-10-09T00:51:05.612Z,57.59
2022-10-09T00:52:04.198Z,57.59
2022-10-09T00:53:04.214Z,57.48
2022-10-09T00:55:04.222Z,57.49
2022-10-09T00:56:04.235Z,57.45
2022-10-09T00:57:04.219Z,57.45
2022-10-09T00:58:04.222Z,57.24
2022-10-09T00:59:04.237Z,57.44
2022-10-09T01:00:04.251Z,57.46
2022-10-09T01:01:04.286Z,57.46
2022-10-09T01:02:04.265Z,57.59
2022-10-09T01:04:04.230Z,57.54
2022-10-09T01:05:04.246Z,57.63
2022-10-09T01:07:04.242Z,57.63
2022-10-09T01:08:04.253Z,57.63
2022-10-09T01:09:04.258Z,57.59
2022-10-09T01:10:04.258Z,57.59
2022-10-09T01:11:04.270Z,57.57
2022-10-09T01:12:04.267Z,57.58
2022-10-09T01:13:04.243Z,57.66
2022-10-09T01:14:04.258Z,57.68
2022-10-09T01:15:04.247Z,57.56
2022-10-09T01:16:04.326Z,57.57
2022-10-09T01:17:04.260Z,57.56
2022-10-09T01:18:04.281Z,57.32
2022-10-09T01:19:04.286Z,57.36
2022-10-09T01:20:04.268Z,57.44
2022-10-09T01:21:04.288Z,57.61
2022-10-09T01:22:04.296Z,57.52
2022-10-09T01:23:04.288Z,57.52
2022-10-09T01:24:04.314Z,57.75
2022-10-09T01:25:04.279Z,57.75
2022-10-09T01:27:04.283Z,57.79
2022-10-09T01:28:05.963Z,58.20
2022-10-09T01:29:04.300Z,58.20
2022-10-09T01:30:04.298Z,58.46
2022-10-09T01:31:04.405Z,58.34
2022-10-09T01:32:04.315Z,58.40
2022-10-09T01:33:04.316Z,58.32
2022-10-09T01:34:04.309Z,58.32
2022-10-09T01:35:04.312Z,58.13
2022-10-09T01:36:04.333Z,58.13
2022-10-09T01:37:04.313Z,58.36
2022-10-09T01:38:04.326Z,58.61
2022-10-09T01:39:04.334Z,58.73
2022-10-09T01:40:04.335Z,58.73
2022-10-09T01:41:04.327Z,58.76
2022-10-09T01:42:04.353Z,58.62
2022-10-09T01:43:04.344Z,58.52
2022-10-09T01:44:04.338Z,58.52
2022-10-09T01:45:04.349Z,58.45
2022-10-09T01:47:04.333Z,58.35
2022-10-09T01:48:04.341Z,58.35
2022-10-09T01:49:04.337Z,58.46
2022-10-09T01:50:04.342Z,58.34
2022-10-09T01:52:04.355Z,58.60
2022-10-09T01:54:04.377Z,58.61
2022-10-09T01:55:04.352Z,58.61
2022-10-09T01:56:04.359Z,58.75
2022-10-09T01:57:04.378Z,58.83
2022-10-09T01:58:04.402Z,58.89
2022-10-09T01:59:04.379Z,58.89
2022-10-09T02:00:04.437Z,58.92
2022-10-09T02:01:04.386Z,58.81
2022-10-09T02:02:04.490Z,58.92
2022-10-09T02:04:04.392Z,58.82
2022-10-09T02:06:04.410Z,58.79
2022-10-09T02:08:04.390Z,58.80
2022-10-09T02:13:04.421Z,58.66
2022-10-09T02:14:04.399Z,58.66
2022-10-09T02:16:04.447Z,58.75
2022-10-09T02:17:04.430Z,58.81
2022-10-09T02:18:04.402Z,58.81
2022-10-09T02:19:04.442Z,58.89
2022-10-09T02:20:04.431Z,58.91
2022-10-09T02:21:04.416Z,58.91
2022-10-09T02:22:04.427Z,58.92
2022-10-09T02:23:04.435Z,58.98
2022-10-09T02:24:04.427Z,59.08
2022-10-09T02:25:04.435Z,59.08
2022-10-09T02:26:04.427Z,59.14
2022-10-09T02:27:04.459Z,59.25
2022-10-09T02:28:04.501Z,59.35
2022-10-09T02:29:04.440Z,59.48
2022-10-09T02:30:04.432Z,59.48
2022-10-09T02:31:04.531Z,59.51
2022-10-09T02:32:04.451Z,59.51
2022-10-09T02:33:04.459Z,59.60
2022-10-09T02:34:04.458Z,59.75
2022-10-09T02:35:04.500Z,59.79
2022-10-09T02:37:04.480Z,59.77
2022-10-09T02:38:04.473Z,59.77
2022-10-09T02:39:04.471Z,59.85
2022-10-09T02:40:09.772Z,59.87
2022-10-09T02:41:04.486Z,59.92
2022-10-09T02:42:06.430Z,59.98
2022-10-09T02:45:04.496Z,60.01
2022-10-09T02:46:04.615Z,59.96
2022-10-09T02:47:04.491Z,59.96
2022-10-09T02:48:04.483Z,59.98
2022-10-09T02:50:04.503Z,60.09
2022-10-09T02:51:04.501Z,60.13
2022-10-09T02:52:04.522Z,60.24
2022-10-09T02:53:04.509Z,60.24
2022-10-09T02:56:04.527Z,60.38
2022-10-09T02:57:04.517Z,60.38
2022-10-09T02:59:04.529Z,60.29
2022-10-09T03:00:04.530Z,60.27
2022-10-09T03:02:04.627Z,60.24
2022-10-09T03:04:04.529Z,60.21
2022-10-09T03:05:04.552Z,60.17
2022-10-09T03:06:04.527Z,60.17
2022-10-09T03:08:04.562Z,60.07
2022-10-09T03:09:04.559Z,60.05
2022-10-09T03:10:04.564Z,60.20
2022-10-09T03:11:04.553Z,60.20
2022-10-09T03:12:04.552Z,60.14
2022-10-09T03:13:04.571Z,60.05
2022-10-09T03:14:04.573Z,60.07
2022-10-09T03:15:04.583Z,60.09
2022-10-09T03:16:04.632Z,60.05
2022-10-09T03:17:04.589Z,59.99
2022-10-09T03:18:04.577Z,60.09
2022-10-09T03:20:04.570Z,60.11
2022-10-09T03:22:04.574Z,60.11
2022-10-09T03:24:04.587Z,60.08
2022-10-09T03:25:04.592Z,60.00
2022-10-09T03:27:04.581Z,59.96
2022-10-09T03:28:04.712Z,60.01
2022-10-09T03:29:04.613Z,60.01
2022-10-09T03:30:04.584Z,60.01
2022-10-09T03:32:04.631Z,60.05
2022-10-09T03:33:04.616Z,60.05
2022-10-09T03:34:04.617Z,60.08
2022-10-09T03:35:04.619Z,60.12
2022-10-09T03:36:04.603Z,60.12
2022-10-09T03:37:04.626Z,60.08
2022-10-09T03:38:04.600Z,60.17
2022-10-09T03:39:04.643Z,60.14
2022-10-09T03:40:04.606Z,60.14
2022-10-09T03:41:04.645Z,60.14
2022-10-09T03:42:04.632Z,60.18
2022-10-09T03:43:04.633Z,60.23
2022-10-09T03:44:04.627Z,60.30
2022-10-09T03:45:04.637Z,60.30
2022-10-09T03:50:04.667Z,60.31
2022-10-09T03:51:04.672Z,60.31
2022-10-09T03:55:04.665Z,60.26
2022-10-09T03:57:04.656Z,60.23
2022-10-09T03:58:04.655Z,60.27
2022-10-09T03:59:04.667Z,60.29
2022-10-09T04:00:04.682Z,60.35
2022-10-09T04:01:04.771Z,60.39
2022-10-09T04:02:04.670Z,60.40
2022-10-09T04:04:04.699Z,60.53
2022-10-09T04:07:04.699Z,60.41
2022-10-09T04:09:04.699Z,60.46
2022-10-09T04:10:04.711Z,60.50
2022-10-09T04:11:04.719Z,60.52
2022-10-09T04:12:04.704Z,60.52
2022-10-09T04:13:04.689Z,60.58
2022-10-09T04:14:04.707Z,60.73
2022-10-09T04:15:04.734Z,60.81
2022-10-09T04:16:04.743Z,60.81
2022-10-09T04:17:04.716Z,60.86
2022-10-09T04:18:04.707Z,60.86
2022-10-09T04:19:04.716Z,60.96
2022-10-09T04:20:04.732Z,61.12
2022-10-09T04:23:04.737Z,61.14
2022-10-09T04:24:04.724Z,61.12
2022-10-09T04:25:04.722Z,61.20
2022-10-09T04:26:04.730Z,61.19
2022-10-09T04:29:04.776Z,61.21
2022-10-09T04:32:04.766Z,61.14
2022-10-09T04:33:11.948Z,61.17
2022-10-09T04:38:04.774Z,61.02
2022-10-09T04:40:04.770Z,60.97
2022-10-09T04:42:04.768Z,60.95
2022-10-09T04:43:04.783Z,60.84
2022-10-09T04:44:04.776Z,60.93
2022-10-09T04:45:04.778Z,60.89
2022-10-09T04:46:04.932Z,60.81
2022-10-09T04:47:08.147Z,60.80
2022-10-09T04:48:04.784Z,60.84
2022-10-09T04:49:04.822Z,60.87
2022-10-09T04:50:04.811Z,60.91
2022-10-09T04:51:04.808Z,60.88
2022-10-09T04:52:04.797Z,60.88
2022-10-09T04:53:04.799Z,60.85
2022-10-09T04:55:04.810Z,60.95
2022-10-09T04:56:04.833Z,60.93
2022-10-09T04:57:04.825Z,60.94
2022-10-09T05:00:04.826Z,60.88
2022-10-09T05:02:04.856Z,60.96
2022-10-09T05:03:04.816Z,60.94
2022-10-09T05:04:04.843Z,60.87
2022-10-09T05:05:04.825Z,60.85
2022-10-09T05:06:04.843Z,60.85
2022-10-09T05:12:04.885Z,60.77
2022-10-09T05:13:04.860Z,60.77
2022-10-09T05:17:13.964Z,60.79
2022-10-09T05:20:04.910Z,60.78
2022-10-09T05:24:09.516Z,60.78
2022-10-09T05:25:04.876Z,60.78
2022-10-09T05:26:04.890Z,60.70
2022-10-09T05:27:04.879Z,60.70
2022-10-09T05:28:04.963Z,60.58
2022-10-09T05:29:04.898Z,60.68
2022-10-09T05:30:04.891Z,60.64
2022-10-09T05:31:04.911Z,60.71
2022-10-09T05:32:04.964Z,60.71
2022-10-09T05:33:04.951Z,60.97
2022-10-09T05:34:04.921Z,60.97
2022-10-09T05:37:05.033Z,61.04
2022-10-09T05:41:04.942Z,61.03
2022-10-09T05:42:04.919Z,61.07
2022-10-09T05:47:07.964Z,60.94
2022-10-09T05:50:04.982Z,60.99
2022-10-09T05:51:04.936Z,60.99
2022-10-09T05:52:04.949Z,60.99
2022-10-09T05:54:04.955Z,60.97
2022-10-09T05:56:04.976Z,60.95
2022-10-09T05:57:04.965Z,60.97
2022-10-09T05:58:04.959Z,60.91
2022-10-09T05:59:05.010Z,60.80
2022-10-09T06:00:04.977Z,60.71
2022-10-09T06:03:05.016Z,60.84
2022-10-09T06:04:04.983Z,60.84
2022-10-09T06:05:05.023Z,60.73
2022-10-09T06:06:05.021Z,60.70
2022-10-09T06:07:04.988Z,60.66
2022-10-09T06:08:05.006Z,60.53
2022-10-09T06:09:05.000Z,60.45
2022-10-09T06:10:05.021Z,60.44
2022-10-09T06:11:05.032Z,60.52
2022-10-09T06:12:05.007Z,60.41
2022-10-09T06:13:05.017Z,60.36
2022-10-09T06:16:05.021Z,60.33
2022-10-09T06:17:05.146Z,60.26
2022-10-09T06:18:05.035Z,60.29
2022-10-09T06:19:05.041Z,60.34
2022-10-09T06:21:05.020Z,60.37
2022-10-09T06:22:05.033Z,60.30
2022-10-09T06:24:08.175Z,60.15
2022-10-09T06:25:05.048Z,60.24
2022-10-09T06:26:05.043Z,60.20
2022-10-09T06:28:05.135Z,60.22
2022-10-09T06:29:05.056Z,60.16
2022-10-09T06:33:05.071Z,60.04
2022-10-09T06:34:05.058Z,60.06
2022-10-09T06:35:05.043Z,60.06
2022-10-09T06:36:09.981Z,60.05
2022-10-09T06:37:05.053Z,60.00
2022-10-09T06:38:05.085Z,60.00
2022-10-09T06:39:05.071Z,60.01
2022-10-09T06:40:05.064Z,59.89
2022-10-09T06:41:05.071Z,59.89
2022-10-09T06:46:05.195Z,59.81
2022-10-09T06:47:05.096Z,59.79
2022-10-09T06:49:05.093Z,59.69
2022-10-09T06:50:05.093Z,59.69
2022-10-09T06:51:05.106Z,59.69
2022-10-09T06:52:05.141Z,59.71
2022-10-09T06:53:05.113Z,59.80
2022-10-09T06:54:05.119Z,59.80
2022-10-09T06:55:05.731Z,59.62
2022-10-09T06:56:05.107Z,59.59
2022-10-09T06:58:05.143Z,59.52
2022-10-09T06:59:05.131Z,59.50
2022-10-09T07:00:05.111Z,59.50
2022-10-09T07:01:08.513Z,59.70
2022-10-09T07:03:05.162Z,59.69
2022-10-09T07:05:05.140Z,59.71
2022-10-09T07:06:05.148Z,59.72
2022-10-09T07:07:05.133Z,59.72
2022-10-09T07:08:05.149Z,59.70
2022-10-09T07:09:05.158Z,59.65
2022-10-09T07:10:05.200Z,59.68
2022-10-09T07:11:05.144Z,59.62
2022-10-09T07:12:05.151Z,59.52
2022-10-09T07:13:05.151Z,59.49
2022-10-09T07:14:05.157Z,59.49
2022-10-09T07:15:05.137Z,59.46
2022-10-09T07:17:05.159Z,59.37
2022-10-09T07:18:05.161Z,59.37
2022-10-09T07:19:05.200Z,59.80
2022-10-09T07:20:05.170Z,59.80
2022-10-09T07:21:05.172Z,59.62
2022-10-09T07:22:05.181Z,59.53
2022-10-09T07:23:05.157Z,59.53
2022-10-09T07:24:05.185Z,59.50
2022-10-09T07:25:05.171Z,59.50
2022-10-09T07:26:05.208Z,59.40
2022-10-09T07:27:05.189Z,59.33
2022-10-09T07:28:05.207Z,59.33
2022-10-09T07:29:05.201Z,59.25
2022-10-09T07:30:05.212Z,59.27
2022-10-09T07:31:05.247Z,59.27
2022-10-09T07:32:09.661Z,59.27
2022-10-09T07:33:05.206Z,59.20
2022-10-09T07:34:05.200Z,58.99
2022-10-09T07:35:05.188Z,58.99
2022-10-09T07:36:05.217Z,59.00
2022-10-09T07:37:05.217Z,58.86
2022-10-09T07:38:08.752Z,58.82
2022-10-09T07:39:05.219Z,58.82
2022-10-09T07:40:05.230Z,58.83
2022-10-09T07:41:05.201Z,58.83
2022-10-09T07:42:05.231Z,58.64
2022-10-09T07:43:05.234Z,58.63
2022-10-09T07:46:05.266Z,58.38
2022-10-09T07:48:05.223Z,58.51
2022-10-09T07:49:05.257Z,58.44
2022-10-09T07:50:05.228Z,58.44
2022-10-09T07:51:05.271Z,58.44
2022-10-09T07:52:05.239Z,58.31
2022-10-09T07:53:05.238Z,58.31
2022-10-09T07:54:05.243Z,58.03
2022-10-09T07:55:05.277Z,57.97
2022-10-09T07:56:05.255Z,57.97
2022-10-09T07:57:05.290Z,58.01
2022-10-09T07:58:05.263Z,58.01
2022-10-09T07:59:05.278Z,57.83
2022-10-09T08:00:05.285Z,57.83
2022-10-09T08:01:05.365Z,57.89
2022-10-09T08:02:05.424Z,57.89
2022-10-09T08:03:05.362Z,57.59
2022-10-09T08:05:05.288Z,57.45
2022-10-09T08:08:05.308Z,57.84
2022-10-09T08:09:05.314Z,57.55
2022-10-09T08:11:05.293Z,57.55
2022-10-09T08:12:05.302Z,57.53
2022-10-09T08:13:05.295Z,57.53
2022-10-09T08:14:05.300Z,57.21
2022-10-09T08:15:09.022Z,57.25
2022-10-09T08:16:05.345Z,57.12
2022-10-09T08:17:05.309Z,57.12
2022-10-09T08:18:05.317Z,57.16
2022-10-09T08:19:05.322Z,56.80
2022-10-09T08:20:05.328Z,57.09
2022-10-09T08:21:05.316Z,57.09
2022-10-09T08:22:05.332Z,56.93
2022-10-09T08:23:05.349Z,56.68
2022-10-09T08:24:05.315Z,56.68
2022-10-09T08:25:05.335Z,56.77
2022-10-09T08:26:05.347Z,56.66
2022-10-09T08:28:05.424Z,56.72
2022-10-09T08:29:05.336Z,56.73
2022-10-09T08:30:05.332Z,56.34
2022-10-09T08:31:05.433Z,56.34
2022-10-09T08:32:05.353Z,56.56
2022-10-09T08:33:05.356Z,56.83
2022-10-09T08:34:05.351Z,56.83
2022-10-09T08:35:05.370Z,56.57
2022-10-09T08:36:05.351Z,56.57
2022-10-09T08:37:05.363Z,56.81
2022-10-09T08:38:05.357Z,56.81
2022-10-09T08:39:05.380Z,56.76
2022-10-09T08:40:05.374Z,56.67
2022-10-09T08:41:05.368Z,56.67
2022-10-09T08:42:05.369Z,56.58
2022-10-09T08:43:05.373Z,56.48
2022-10-09T08:44:05.380Z,56.48
2022-10-09T08:45:05.390Z,56.98
2022-10-09T08:46:05.424Z,56.98
2022-10-09T08:47:05.398Z,57.06
2022-10-09T08:48:05.377Z,57.06
2022-10-09T08:50:05.402Z,56.86
2022-10-09T08:52:09.332Z,56.88
2022-10-09T08:53:05.411Z,56.88
2022-10-09T08:54:05.402Z,56.88
2022-10-09T08:55:05.405Z,56.69
2022-10-09T08:56:05.428Z,56.58
2022-10-09T08:57:05.402Z,56.53
2022-10-09T08:59:05.425Z,56.58
2022-10-09T09:00:05.411Z,56.58
2022-10-09T09:01:05.421Z,56.80
2022-10-09T09:02:05.448Z,56.92
2022-10-09T09:03:05.452Z,56.97
2022-10-09T09:05:05.476Z,56.84
2022-10-09T09:06:05.427Z,56.79
2022-10-09T09:07:05.413Z,56.79
2022-10-09T09:08:05.448Z,56.73
2022-10-09T09:10:05.429Z,56.61
2022-10-09T09:11:05.442Z,56.62
2022-10-09T09:12:05.443Z,56.80
2022-10-09T09:14:05.453Z,57.04
2022-10-09T09:15:05.455Z,57.05
2022-10-09T09:16:05.514Z,57.05
2022-10-09T09:17:05.469Z,56.93
2022-10-09T09:18:05.475Z,56.62
2022-10-09T09:19:05.474Z,56.49
2022-10-09T09:21:05.477Z,56.44
2022-10-09T09:22:05.473Z,56.44
2022-10-09T09:23:05.498Z,56.23
2022-10-09T09:24:05.477Z,56.23
2022-10-09T09:25:05.507Z,56.36
2022-10-09T09:26:05.500Z,56.54
2022-10-09T09:27:05.488Z,56.54
2022-10-09T09:28:10.045Z,56.57
2022-10-09T09:29:09.650Z,56.69
2022-10-09T09:30:05.498Z,56.38
2022-10-09T09:31:05.529Z,56.42
2022-10-09T09:32:05.495Z,56.62
2022-10-09T09:34:05.493Z,56.40
2022-10-09T09:35:05.497Z,56.40
2022-10-09T09:37:05.537Z,56.55
2022-10-09T09:38:05.502Z,56.59
2022-10-09T09:40:35.443Z,56.55
2022-10-09T09:41:05.513Z,56.72
2022-10-09T09:42:05.583Z,56.25
2022-10-09T09:43:05.532Z,56.36
2022-10-09T09:44:05.540Z,56.41
2022-10-09T09:45:05.520Z,56.41
2022-10-09T09:46:05.566Z,56.21
2022-10-09T09:47:05.528Z,56.14
2022-10-09T09:48:05.547Z,56.41
2022-10-09T09:49:09.370Z,56.62
2022-10-09T09:50:05.537Z,56.67
2022-10-09T09:51:26.751Z,56.67
2022-10-09T09:52:05.557Z,56.42
2022-10-09T09:53:05.541Z,56.42
2022-10-09T09:54:05.561Z,56.41
2022-10-09T09:57:13.947Z,56.35
2022-10-09T09:58:05.574Z,56.75
2022-10-09T09:59:05.562Z,56.75
2022-10-09T10:00:05.568Z,56.79
2022-10-09T10:01:05.656Z,56.54
2022-10-09T10:02:05.632Z,56.54
2022-10-09T10:04:05.585Z,56.65
2022-10-09T10:05:05.580Z,57.27
2022-10-09T10:06:09.971Z,57.36
2022-10-09T10:07:05.595Z,57.21
2022-10-09T10:08:05.575Z,57.21
2022-10-09T10:09:05.592Z,56.99
2022-10-09T10:10:05.591Z,56.92
2022-10-09T10:11:05.593Z,57.07
2022-10-09T10:12:05.658Z,56.74
2022-10-09T10:13:05.617Z,56.72
2022-10-09T10:14:05.604Z,57.08
2022-10-09T10:15:05.616Z,57.03
2022-10-09T10:16:05.661Z,57.08
2022-10-09T10:17:05.589Z,57.08
2022-10-09T10:18:05.633Z,56.84
2022-10-09T10:20:05.642Z,56.98
2022-10-09T10:21:05.618Z,57.18
2022-10-09T10:23:05.633Z,57.28
2022-10-09T10:24:05.654Z,57.35
2022-10-09T10:25:05.641Z,57.22
2022-10-09T10:26:05.651Z,57.13
2022-10-09T10:27:05.637Z,56.96
2022-10-09T10:28:05.735Z,56.94
2022-10-09T10:29:05.647Z,56.86
2022-10-09T10:30:05.638Z,57.02
2022-10-09T10:31:05.678Z,57.02
2022-10-09T10:32:05.656Z,56.77
2022-10-09T10:33:05.651Z,56.77
2022-10-09T10:35:05.673Z,56.98
2022-10-09T10:36:05.659Z,56.98
2022-10-09T10:37:05.652Z,57.15
2022-10-09T10:38:05.685Z,56.86
2022-10-09T10:39:05.677Z,56.72
2022-10-09T10:40:05.669Z,56.80
2022-10-09T10:43:10.502Z,56.77
2022-10-09T10:44:05.655Z,56.77
2022-10-09T10:45:05.666Z,57.13
2022-10-09T10:46:05.689Z,57.13
2022-10-09T10:47:05.668Z,57.20
2022-10-09T10:48:05.674Z,57.33
2022-10-09T10:49:05.732Z,57.18
2022-10-09T10:50:05.704Z,57.17
2022-10-09T10:51:05.677Z,57.17
2022-10-09T10:52:05.701Z,57.24
2022-10-09T10:53:05.681Z,57.21
2022-10-09T10:54:05.706Z,56.80
2022-10-09T10:55:05.844Z,57.10
2022-10-09T10:56:05.723Z,56.91
2022-10-09T10:57:05.716Z,56.91
2022-10-09T10:58:05.729Z,56.94
2022-10-09T10:59:05.733Z,56.96
2022-10-09T11:00:05.703Z,56.96
2022-10-09T11:03:05.850Z,56.77
2022-10-09T11:04:05.718Z,56.90
2022-10-09T11:05:05.721Z,56.84
2022-10-09T11:06:05.724Z,56.59
2022-10-09T11:07:05.732Z,56.43
2022-10-09T11:08:05.749Z,56.41
2022-10-09T11:09:05.763Z,56.41
2022-10-09T11:10:05.770Z,56.35
2022-10-09T11:11:05.744Z,56.11
2022-10-09T11:12:05.755Z,56.20
2022-10-09T11:13:05.763Z,56.24
2022-10-09T11:15:05.794Z,56.00
2022-10-09T11:16:05.808Z,56.29
2022-10-09T11:17:05.764Z,55.71
2022-10-09T11:18:05.774Z,55.54
2022-10-09T11:19:05.779Z,55.88
2022-10-09T11:20:10.823Z,55.93
2022-10-09T11:21:05.749Z,55.93
2022-10-09T11:23:05.786Z,56.19
2022-10-09T11:24:05.782Z,56.14
2022-10-09T11:25:05.840Z,56.46
2022-10-09T11:26:05.826Z,56.65
2022-10-09T11:27:05.781Z,56.65
2022-10-09T11:28:05.850Z,56.81
2022-10-09T11:29:05.791Z,56.81
2022-10-09T11:30:05.867Z,56.98
2022-10-09T11:31:05.835Z,56.80
2022-10-09T11:32:05.892Z,56.72
2022-10-09T11:33:05.809Z,56.84
2022-10-09T11:34:05.780Z,56.46
2022-10-09T11:35:05.810Z,55.97
2022-10-09T11:36:05.888Z,56.24
2022-10-09T11:37:05.826Z,56.31
2022-10-09T11:38:08.053Z,56.29
2022-10-09T11:39:05.818Z,56.29
2022-10-09T11:40:05.840Z,56.18
2022-10-09T11:41:07.396Z,56.18
2022-10-09T11:42:05.835Z,56.28
2022-10-09T11:43:05.835Z,56.28
2022-10-09T11:44:05.861Z,56.16
2022-10-09T11:45:05.822Z,55.48
2022-10-09T11:46:05.968Z,55.67
2022-10-09T11:47:09.495Z,55.46
2022-10-09T11:48:05.837Z,55.49
2022-10-09T11:49:05.857Z,55.25
2022-10-09T11:50:05.912Z,55.65
2022-10-09T11:52:05.851Z,55.83
2022-10-09T11:53:05.878Z,55.56
2022-10-09T11:54:06.140Z,55.74
2022-10-09T11:55:05.885Z,55.74
2022-10-09T11:56:05.960Z,55.76
2022-10-09T11:57:15.103Z,55.94
2022-10-09T11:58:05.889Z,55.91
2022-10-09T12:00:05.888Z,56.17
2022-10-09T12:03:05.913Z,56.07
2022-10-09T12:04:05.866Z,56.17
2022-10-09T12:05:05.878Z,56.16
2022-10-09T12:06:05.980Z,55.92
2022-10-09T12:07:05.883Z,55.92
2022-10-09T12:08:05.874Z,55.78
2022-10-09T12:09:05.912Z,55.88
2022-10-09T12:10:05.897Z,55.90
2022-10-09T12:11:05.912Z,56.16
2022-10-09T12:12:05.917Z,56.08
2022-10-09T12:13:05.925Z,56.10
2022-10-09T12:14:05.917Z,56.04
2022-10-09T12:15:05.950Z,56.06
2022-10-09T12:18:05.913Z,56.05
2022-10-09T12:19:05.928Z,56.15
2022-10-09T12:20:05.912Z,55.92
2022-10-09T12:21:05.986Z,55.84
2022-10-09T12:22:05.925Z,56.01
2022-10-09T12:23:25.770Z,56.10
2022-10-09T12:26:05.947Z,55.57
2022-10-09T12:27:05.978Z,55.57
2022-10-09T12:28:05.984Z,55.42
2022-10-09T12:29:05.956Z,55.86
2022-10-09T12:30:05.952Z,55.81
2022-10-09T12:32:05.960Z,55.87
2022-10-09T12:33:05.984Z,55.61
2022-10-09T12:34:05.955Z,55.70
2022-10-09T12:35:05.968Z,55.70
2022-10-09T12:36:05.959Z,55.42
2022-10-09T12:37:05.955Z,55.42
2022-10-09T12:38:05.963Z,55.16
2022-10-09T12:39:06.003Z,55.13
2022-10-09T12:40:05.979Z,55.19
2022-10-09T12:41:05.952Z,55.19
2022-10-09T12:42:05.978Z,55.19
2022-10-09T12:43:05.960Z,55.10
2022-10-09T12:44:05.991Z,55.18
2022-10-09T12:45:06.013Z,55.18
2022-10-09T12:46:06.044Z,55.22
2022-10-09T12:47:05.995Z,55.18
2022-10-09T12:48:05.995Z,55.06
2022-10-09T12:49:05.993Z,55.06
2022-10-09T12:51:06.041Z,54.90
2022-10-09T12:52:06.005Z,54.90
2022-10-09T12:53:06.021Z,55.08
2022-10-09T12:54:06.005Z,55.08
2022-10-09T12:56:06.018Z,54.72
2022-10-09T12:57:06.042Z,54.50
2022-10-09T12:58:06.016Z,54.66
2022-10-09T12:59:06.029Z,54.66
2022-10-09T13:01:06.215Z,54.89
2022-10-09T13:03:06.088Z,55.10
2022-10-09T13:04:06.047Z,55.10
2022-10-09T13:05:06.028Z,55.08
2022-10-09T13:06:06.044Z,54.97
2022-10-09T13:07:06.032Z,54.87
2022-10-09T13:08:06.678Z,54.72
2022-10-09T13:09:06.032Z,54.72
2022-10-09T13:11:06.097Z,54.51
2022-10-09T13:13:06.037Z,54.44
2022-10-09T13:14:06.076Z,54.46
2022-10-09T13:16:06.067Z,54.79
2022-10-09T13:17:06.115Z,54.79
2022-10-09T13:19:06.086Z,54.36
2022-10-09T13:20:06.091Z,54.20
2022-10-09T13:21:06.080Z,54.15
2022-10-09T13:22:06.103Z,54.69
2022-10-09T13:23:06.070Z,54.46
2022-10-09T13:24:06.077Z,54.46
2022-10-09T13:25:06.081Z,55.05
2022-10-09T13:26:06.147Z,55.05
2022-10-09T13:27:06.085Z,55.02
2022-10-09T13:28:06.218Z,55.02
2022-10-09T13:29:06.085Z,54.89
2022-10-09T13:30:06.086Z,54.82
2022-10-09T13:31:06.225Z,54.82
2022-10-09T13:32:06.183Z,54.42
2022-10-09T13:33:06.093Z,54.37
2022-10-09T13:34:06.136Z,54.66
2022-10-09T13:35:06.100Z,54.66
2022-10-09T13:36:06.124Z,54.58
2022-10-09T13:37:06.120Z,54.61
2022-10-09T13:38:06.161Z,54.61
2022-10-09T13:39:06.121Z,54.56
2022-10-09T13:40:06.113Z,54.56
2022-10-09T13:41:06.127Z,54.61
2022-10-09T13:42:06.122Z,55.01
2022-10-09T13:44:06.163Z,55.08
2022-10-09T13:45:06.917Z,55.19
2022-10-09T13:46:06.222Z,55.20
2022-10-09T13:47:06.166Z,55.18
2022-10-09T13:48:06.141Z,55.18
2022-10-09T13:49:06.146Z,55.17
2022-10-09T13:50:06.200Z,54.85
2022-10-09T13:51:06.138Z,54.85
2022-10-09T13:52:06.141Z,54.91
2022-10-09T13:53:06.153Z,54.91
2022-10-09T13:54:06.146Z,54.92
2022-10-09T13:55:06.160Z,54.68
2022-10-09T13:56:06.227Z,54.27
2022-10-09T13:57:06.163Z,54.27
2022-10-09T13:58:06.166Z,54.30
2022-10-09T13:59:06.174Z,54.32
2022-10-09T14:00:06.186Z,54.58
2022-10-09T14:01:06.286Z,54.58
2022-10-09T14:02:06.249Z,54.65
2022-10-09T14:03:06.177Z,54.69
2022-10-09T14:04:06.173Z,54.69
2022-10-09T14:05:06.193Z,54.56
2022-10-09T14:06:06.185Z,54.40
2022-10-09T14:07:06.193Z,54.59
2022-10-09T14:09:06.276Z,54.58
2022-10-09T14:10:06.169Z,54.58
2022-10-09T14:11:06.190Z,54.51
2022-10-09T14:12:06.206Z,54.51
2022-10-09T14:13:06.211Z,54.87
2022-10-09T14:14:06.200Z,54.87
2022-10-09T14:15:06.270Z,55.03
2022-10-09T14:16:06.215Z,54.93
2022-10-09T14:17:06.229Z,54.93
2022-10-09T14:19:06.289Z,54.87
2022-10-09T14:20:06.225Z,54.89
2022-10-09T14:21:06.238Z,54.81
2022-10-09T14:22:07.224Z,54.80
2022-10-09T14:25:06.232Z,54.78
2022-10-09T14:26:06.238Z,54.84
2022-10-09T14:27:06.267Z,54.85
2022-10-09T14:28:06.349Z,54.68
2022-10-09T14:30:06.245Z,54.53
2022-10-09T14:31:06.254Z,54.53
2022-10-09T14:33:06.307Z,54.26
2022-10-09T14:34:06.248Z,54.19
2022-10-09T14:35:06.245Z,54.19
2022-10-09T14:40:06.310Z,54.27
2022-10-09T14:41:06.290Z,54.27
2022-10-09T14:42:06.289Z,54.34
2022-10-09T14:45:06.269Z,54.43
2022-10-09T14:46:06.355Z,54.56
2022-10-09T14:48:06.293Z,54.40
2022-10-09T14:51:06.307Z,54.46
2022-10-09T14:54:06.344Z,54.18
2022-10-09T14:55:06.314Z,54.18
2022-10-09T14:57:06.321Z,54.36
2022-10-09T14:58:06.325Z,54.36
2022-10-09T14:59:07.549Z,54.40
2022-10-09T15:01:06.332Z,54.50
2022-10-09T15:02:06.335Z,54.62
2022-10-09T15:05:06.350Z,54.61
2022-10-09T15:06:06.334Z,54.61
2022-10-09T15:08:06.344Z,54.53
2022-10-09T15:09:06.490Z,54.64
2022-10-09T15:11:06.373Z,54.46
2022-10-09T15:13:06.344Z,54.56
2022-10-09T15:14:06.376Z,54.69
2022-10-09T15:17:06.369Z,54.57
2022-10-09T15:18:06.352Z,54.57
2022-10-09T15:20:06.381Z,54.56
2022-10-09T15:21:06.396Z,54.53
2022-10-09T15:23:06.386Z,54.43
2022-10-09T15:28:06.498Z,54.60
2022-10-09T15:29:06.392Z,54.62
2022-10-09T15:30:06.412Z,54.57
2022-10-09T15:31:06.410Z,54.57
2022-10-09T15:32:06.400Z,54.38
2022-10-09T15:33:06.428Z,54.50
2022-10-09T15:35:06.416Z,54.53
2022-10-09T15:37:06.433Z,54.39
2022-10-09T15:38:06.421Z,54.39
2022-10-09T15:39:06.411Z,54.35
2022-10-09T15:45:06.441Z,54.90
2022-10-09T15:46:06.443Z,54.82
2022-10-09T15:47:06.435Z,54.82
2022-10-09T15:50:06.506Z,55.07
2022-10-09T15:51:06.443Z,54.96
2022-10-09T15:52:06.459Z,54.85
2022-10-09T15:53:06.439Z,54.85
2022-10-09T15:54:06.456Z,54.96
2022-10-09T15:55:06.443Z,55.04
2022-10-09T15:57:06.474Z,55.17
2022-10-09T15:59:06.467Z,55.44
2022-10-09T16:00:06.611Z,55.31
2022-10-09T16:01:06.478Z,55.32
2022-10-09T16:02:06.477Z,55.32
2022-10-09T16:03:06.493Z,55.38
2022-10-09T16:04:06.476Z,55.26
2022-10-09T16:05:06.488Z,55.00
2022-10-09T16:06:06.481Z,55.00
2022-10-09T16:07:06.482Z,55.13
2022-10-09T16:09:06.510Z,55.21
2022-10-09T16:10:06.563Z,55.19
2022-10-09T16:13:08.187Z,55.25
2022-10-09T16:14:06.505Z,55.25
2022-10-09T16:15:06.513Z,55.21
2022-10-09T16:17:10.987Z,55.30
2022-10-09T16:18:06.512Z,55.25